sensor_id;sensor_type;location;lat;lon;timestamp;P1;durP1;ratioP1;P2;durP2;ratioP2
20236;SDS011;10277;54.386;18.596;2022-10-31T06:32:23;74.05;;;42.20;;
20236;SDS011;10277;54.386;18.596;2022-10-31T06:37:26;76.53;;;45.00;;
20236;SDS011;10277;54.386;18.596;2022-10-31T06:42:35;65.38;;;37.30;;
20236;SDS011;10277;54.386;18.596;2022-10-31T06:47:38;60.65;;;35.58;;
20236;SDS011;10277;54.386;18.596;2022-10-31T06:53:04;56.13;;;34.80;;
20236;SDS011;10277;54.386;18.596;2022-10-31T06:58:08;58.22;;;35.50;;
20236;SDS011;10277;54.386;18.596;2022-10-31T07:03:13;63.38;;;35.80;;
20236;SDS011;10277;54.386;18.596;2022-10-31T07:08:18;53.17;;;33.72;;
20236;SDS011;10277;54.386;18.596;2022-10-31T07:13:22;53.55;;;32.80;;
20236;SDS011;10277;54.386;18.596;2022-10-31T07:18:40;52.35;;;32.65;;
20236;SDS011;10277;54.386;18.596;2022-10-31T07:23:47;54.95;;;33.58;;
20236;SDS011;10277;54.386;18.596;2022-10-31T07:29:24;53.30;;;32.70;;
20236;SDS011;10277;54.386;18.596;2022-10-31T07:34:27;53.22;;;32.45;;
20236;SDS011;10277;54.386;18.596;2022-10-31T07:39:47;50.20;;;32.07;;
20236;SDS011;10277;54.386;18.596;2022-10-31T07:44:51;52.05;;;33.22;;
20236;SDS011;10277;54.386;18.596;2022-10-31T07:50:20;44.40;;;26.93;;
20236;SDS011;10277;54.386;18.596;2022-10-31T07:55:41;41.90;;;26.33;;
20236;SDS011;10277;54.386;18.596;2022-10-31T08:00:45;44.67;;;27.67;;
20236;SDS011;10277;54.386;18.596;2022-10-31T08:05:51;45.23;;;27.20;;
20236;SDS011;10277;54.386;18.596;2022-10-31T08:11:16;49.10;;;28.90;;
20236;SDS011;10277;54.386;18.596;2022-10-31T08:16:19;48.87;;;29.63;;
20236;SDS011;10277;54.386;18.596;2022-10-31T08:21:32;44.73;;;26.30;;
20236;SDS011;10277;54.386;18.596;2022-10-31T08:26:35;41.30;;;24.60;;
20236;SDS011;10277;54.386;18.596;2022-10-31T08:31:43;41.07;;;25.20;;
20236;SDS011;10277;54.386;18.596;2022-10-31T08:37:04;39.73;;;24.30;;
20236;SDS011;10277;54.386;18.596;2022-10-31T08:42:28;41.40;;;27.07;;
20236;SDS011;10277;54.386;18.596;2022-10-31T08:47:31;43.23;;;30.30;;
20236;SDS011;10277;54.386;18.596;2022-10-31T08:52:34;41.55;;;28.45;;
20236;SDS011;10277;54.386;18.596;2022-10-31T08:57:57;40.63;;;26.07;;
20236;SDS011;10277;54.386;18.596;2022-10-31T09:03:11;43.57;;;26.40;;
20236;SDS011;10277;54.386;18.596;2022-10-31T09:08:14;43.10;;;27.73;;
20236;SDS011;10277;54.386;18.596;2022-10-31T09:13:21;46.30;;;29.63;;
20236;SDS011;10277;54.386;18.596;2022-10-31T09:18:59;45.30;;;27.23;;
20236;SDS011;10277;54.386;18.596;2022-10-31T09:24:01;53.40;;;31.10;;
20236;SDS011;10277;54.386;18.596;2022-10-31T09:29:06;52.27;;;30.77;;
20236;SDS011;10277;54.386;18.596;2022-10-31T09:34:12;50.33;;;30.47;;
20236;SDS011;10277;54.386;18.596;2022-10-31T09:39:20;49.17;;;29.20;;
20236;SDS011;10277;54.386;18.596;2022-10-31T09:50:21;60.73;;;33.57;;
20236;SDS011;10277;54.386;18.596;2022-10-31T09:55:40;55.60;;;32.33;;
20236;SDS011;10277;54.386;18.596;2022-10-31T10:00:43;57.43;;;33.07;;
20236;SDS011;10277;54.386;18.596;2022-10-31T10:05:57;59.33;;;33.67;;
20236;SDS011;10277;54.386;18.596;2022-10-31T10:26:43;56.07;;;31.50;;
20236;SDS011;10277;54.386;18.596;2022-10-31T10:31:49;61.07;;;33.27;;
20236;SDS011;10277;54.386;18.596;2022-10-31T10:41:57;56.00;;;31.37;;
20236;SDS011;10277;54.386;18.596;2022-10-31T10:47:18;54.87;;;30.40;;
20236;SDS011;10277;54.386;18.596;2022-10-31T10:57:58;62.63;;;31.87;;
20236;SDS011;10277;54.386;18.596;2022-10-31T11:03:03;63.95;;;37.05;;
20236;SDS011;10277;54.386;18.596;2022-10-31T11:08:08;61.55;;;37.75;;
20236;SDS011;10277;54.386;18.596;2022-10-31T11:18:22;58.00;;;36.03;;
20236;SDS011;10277;54.386;18.596;2022-10-31T11:23:27;59.97;;;36.83;;
20236;SDS011;10277;54.386;18.596;2022-10-31T11:28:30;60.20;;;36.53;;
20236;SDS011;10277;54.386;18.596;2022-10-31T11:33:38;59.47;;;36.80;;
20236;SDS011;10277;54.386;18.596;2022-10-31T11:38:42;52.65;;;33.72;;
20236;SDS011;10277;54.386;18.596;2022-10-31T11:43:49;54.28;;;34.35;;
20236;SDS011;10277;54.386;18.596;2022-10-31T11:48:53;54.05;;;35.58;;
20236;SDS011;10277;54.386;18.596;2022-10-31T11:53:59;54.47;;;34.22;;
20236;SDS011;10277;54.386;18.596;2022-10-31T11:59:14;52.40;;;33.38;;
20236;SDS011;10277;54.386;18.596;2022-10-31T12:04:17;50.17;;;32.97;;
20236;SDS011;10277;54.386;18.596;2022-10-31T12:55:45;36.67;;;26.70;;
20236;SDS011;10277;54.386;18.596;2022-10-31T13:01:04;39.40;;;28.58;;
20236;SDS011;10277;54.386;18.596;2022-10-31T13:06:12;36.40;;;27.77;;
20236;SDS011;10277;54.386;18.596;2022-10-31T13:11:17;45.13;;;31.03;;
20236;SDS011;10277;54.386;18.596;2022-10-31T13:16:31;42.70;;;31.20;;
20236;SDS011;10277;54.386;18.596;2022-10-31T13:21:49;43.47;;;31.15;;
20236;SDS011;10277;54.386;18.596;2022-10-31T13:26:54;41.30;;;29.63;;
20236;SDS011;10277;54.386;18.596;2022-10-31T13:31:57;45.30;;;31.52;;
20236;SDS011;10277;54.386;18.596;2022-10-31T13:42:27;49.20;;;32.10;;
20236;SDS011;10277;54.386;18.596;2022-10-31T13:47:32;41.35;;;29.75;;
20236;SDS011;10277;54.386;18.596;2022-10-31T13:52:35;36.72;;;27.63;;
20236;SDS011;10277;54.386;18.596;2022-10-31T13:57:43;34.15;;;26.90;;
20236;SDS011;10277;54.386;18.596;2022-10-31T14:02:47;35.55;;;26.98;;
20236;SDS011;10277;54.386;18.596;2022-10-31T14:07:51;38.05;;;28.95;;
20236;SDS011;10277;54.386;18.596;2022-10-31T14:18:24;41.85;;;31.25;;
20236;SDS011;10277;54.386;18.596;2022-10-31T14:28:35;43.75;;;30.33;;
20236;SDS011;10277;54.386;18.596;2022-10-31T14:33:41;44.70;;;32.17;;
20236;SDS011;10277;54.386;18.596;2022-10-31T14:54:36;39.93;;;29.60;;
20236;SDS011;10277;54.386;18.596;2022-10-31T14:59:42;45.20;;;36.70;;
20236;SDS011;10277;54.386;18.596;2022-10-31T15:04:46;41.63;;;31.10;;
20236;SDS011;10277;54.386;18.596;2022-10-31T15:10:00;38.27;;;27.83;;
20236;SDS011;10277;54.386;18.596;2022-10-31T15:15:22;38.85;;;27.45;;
20236;SDS011;10277;54.386;18.596;2022-10-31T15:20:26;36.03;;;27.17;;
20236;SDS011;10277;54.386;18.596;2022-10-31T15:25:32;38.63;;;28.60;;
20236;SDS011;10277;54.386;18.596;2022-10-31T15:30:35;41.80;;;28.15;;
20236;SDS011;10277;54.386;18.596;2022-10-31T15:35:38;37.60;;;27.15;;
20236;SDS011;10277;54.386;18.596;2022-10-31T15:40:40;36.38;;;26.45;;
20236;SDS011;10277;54.386;18.596;2022-10-31T15:45:53;39.53;;;29.10;;
20236;SDS011;10277;54.386;18.596;2022-10-31T15:50:55;39.75;;;26.55;;
20236;SDS011;10277;54.386;18.596;2022-10-31T15:55:59;38.47;;;25.80;;
20236;SDS011;10277;54.386;18.596;2022-10-31T16:01:04;37.42;;;26.55;;
20236;SDS011;10277;54.386;18.596;2022-10-31T16:06:18;43.67;;;29.17;;
20236;SDS011;10277;54.386;18.596;2022-10-31T16:11:28;45.20;;;33.97;;
20236;SDS011;10277;54.386;18.596;2022-10-31T16:17:20;42.03;;;30.90;;
20236;SDS011;10277;54.386;18.596;2022-10-31T16:22:46;36.20;;;25.73;;
20236;SDS011;10277;54.386;18.596;2022-10-31T16:27:50;38.20;;;27.10;;
20236;SDS011;10277;54.386;18.596;2022-10-31T16:33:01;35.70;;;24.75;;
20236;SDS011;10277;54.386;18.596;2022-10-31T16:38:05;36.03;;;25.23;;
20236;SDS011;10277;54.386;18.596;2022-10-31T16:43:09;36.45;;;29.30;;
20236;SDS011;10277;54.386;18.596;2022-10-31T16:48:17;39.45;;;31.55;;
20236;SDS011;10277;54.386;18.596;2022-10-31T16:53:21;32.92;;;22.65;;
20236;SDS011;10277;54.386;18.596;2022-10-31T16:58:25;31.60;;;21.67;;
20236;SDS011;10277;54.386;18.596;2022-10-31T17:03:28;29.37;;;21.57;;
20236;SDS011;10277;54.386;18.596;2022-10-31T17:08:30;31.73;;;21.50;;
20236;SDS011;10277;54.386;18.596;2022-10-31T17:13:34;30.80;;;22.17;;
20236;SDS011;10277;54.386;18.596;2022-10-31T17:18:37;29.20;;;20.70;;
20236;SDS011;10277;54.386;18.596;2022-10-31T17:23:40;30.00;;;21.30;;
20236;SDS011;10277;54.386;18.596;2022-10-31T17:28:45;29.67;;;21.58;;
20236;SDS011;10277;54.386;18.596;2022-10-31T17:33:48;31.65;;;24.20;;
20236;SDS011;10277;54.386;18.596;2022-10-31T17:38:51;31.38;;;22.10;;
20236;SDS011;10277;54.386;18.596;2022-10-31T17:43:54;29.75;;;22.83;;
20236;SDS011;10277;54.386;18.596;2022-10-31T17:48:57;28.23;;;20.73;;
20236;SDS011;10277;54.386;18.596;2022-10-31T17:54:02;28.73;;;20.92;;
20236;SDS011;10277;54.386;18.596;2022-10-31T17:59:07;31.90;;;23.03;;
20236;SDS011;10277;54.386;18.596;2022-10-31T18:04:10;33.05;;;23.58;;
20236;SDS011;10277;54.386;18.596;2022-10-31T18:09:13;34.03;;;23.42;;
20236;SDS011;10277;54.386;18.596;2022-10-31T18:14:15;33.53;;;24.35;;
20236;SDS011;10277;54.386;18.596;2022-10-31T18:19:18;32.90;;;24.67;;
20236;SDS011;10277;54.386;18.596;2022-10-31T18:24:21;48.83;;;32.10;;
20236;SDS011;10277;54.386;18.596;2022-10-31T18:29:23;40.33;;;28.80;;
20236;SDS011;10277;54.386;18.596;2022-10-31T18:34:26;40.45;;;30.00;;
20236;SDS011;10277;54.386;18.596;2022-10-31T18:39:32;36.37;;;26.40;;
20236;SDS011;10277;54.386;18.596;2022-10-31T18:44:35;32.77;;;25.30;;
20236;SDS011;10277;54.386;18.596;2022-10-31T18:49:39;29.77;;;21.88;;
20236;SDS011;10277;54.386;18.596;2022-10-31T18:54:41;31.15;;;21.45;;
20236;SDS011;10277;54.386;18.596;2022-10-31T18:59:46;26.33;;;19.90;;
20236;SDS011;10277;54.386;18.596;2022-10-31T19:04:48;27.20;;;19.13;;
20236;SDS011;10277;54.386;18.596;2022-10-31T19:09:51;25.08;;;18.25;;
20236;SDS011;10277;54.386;18.596;2022-10-31T19:14:54;23.30;;;16.23;;
20236;SDS011;10277;54.386;18.596;2022-10-31T19:19:57;21.77;;;16.60;;
20236;SDS011;10277;54.386;18.596;2022-10-31T19:25:00;22.98;;;17.30;;
20236;SDS011;10277;54.386;18.596;2022-10-31T19:30:11;24.55;;;17.73;;
20236;SDS011;10277;54.386;18.596;2022-10-31T19:35:14;23.63;;;17.77;;
20236;SDS011;10277;54.386;18.596;2022-10-31T19:40:17;24.65;;;18.55;;
20236;SDS011;10277;54.386;18.596;2022-10-31T19:45:19;25.40;;;18.23;;
20236;SDS011;10277;54.386;18.596;2022-10-31T19:50:22;25.77;;;19.90;;
20236;SDS011;10277;54.386;18.596;2022-10-31T19:55:25;24.40;;;19.20;;
20236;SDS011;10277;54.386;18.596;2022-10-31T20:00:28;34.57;;;27.43;;
20236;SDS011;10277;54.386;18.596;2022-10-31T20:05:31;37.00;;;29.10;;
20236;SDS011;10277;54.386;18.596;2022-10-31T20:10:34;33.63;;;26.33;;
20236;SDS011;10277;54.386;18.596;2022-10-31T20:15:37;31.27;;;25.77;;
20236;SDS011;10277;54.386;18.596;2022-10-31T20:20:40;33.67;;;25.67;;
20236;SDS011;10277;54.386;18.596;2022-10-31T20:25:47;35.05;;;27.55;;
20236;SDS011;10277;54.386;18.596;2022-10-31T20:30:52;38.03;;;27.77;;
20236;SDS011;10277;54.386;18.596;2022-10-31T20:35:55;37.85;;;25.45;;
20236;SDS011;10277;54.386;18.596;2022-10-31T20:40:59;30.75;;;23.83;;
20236;SDS011;10277;54.386;18.596;2022-10-31T20:46:04;29.73;;;22.30;;
20236;SDS011;10277;54.386;18.596;2022-10-31T20:51:11;28.87;;;21.33;;
20236;SDS011;10277;54.386;18.596;2022-10-31T20:56:15;28.60;;;21.00;;
20236;SDS011;10277;54.386;18.596;2022-10-31T21:01:20;31.27;;;22.40;;
20236;SDS011;10277;54.386;18.596;2022-10-31T21:06:24;27.17;;;20.98;;
20236;SDS011;10277;54.386;18.596;2022-10-31T21:11:27;30.27;;;21.35;;
20236;SDS011;10277;54.386;18.596;2022-10-31T21:16:31;26.73;;;18.92;;
20236;SDS011;10277;54.386;18.596;2022-10-31T21:26:07;24.85;;;19.15;;
20236;SDS011;10277;54.386;18.596;2022-10-31T21:31:48;23.27;;;17.02;;
20236;SDS011;10277;54.386;18.596;2022-10-31T21:41:42;24.90;;;17.57;;
20236;SDS011;10277;54.386;18.596;2022-10-31T21:59:24;17.40;;;10.87;;
20236;SDS011;10277;54.386;18.596;2022-10-31T21:59:58;15.27;;;10.77;;
20236;SDS011;10277;54.386;18.596;2022-10-31T22:00:32;13.37;;;11.17;;
20236;SDS011;10277;54.386;18.596;2022-10-31T22:01:06;11.73;;;10.27;;
20236;SDS011;10277;54.386;18.596;2022-10-31T22:01:40;12.67;;;10.00;;
20236;SDS011;10277;54.386;18.596;2022-10-31T22:02:14;10.43;;;9.03;;
20236;SDS011;10277;54.386;18.596;2022-10-31T22:02:48;12.37;;;10.30;;
20236;SDS011;10277;54.386;18.596;2022-10-31T22:03:22;12.07;;;9.87;;
20236;SDS011;10277;54.386;18.596;2022-10-31T22:04:20;13.17;;;10.23;;
20236;SDS011;10277;54.386;18.596;2022-10-31T22:04:54;11.97;;;10.23;;
20236;SDS011;10277;54.386;18.596;2022-10-31T22:05:26;15.10;;;11.37;;
20236;SDS011;10277;54.386;18.596;2022-10-31T22:06:03;14.53;;;10.60;;
20236;SDS011;10277;54.386;18.596;2022-10-31T22:06:36;14.23;;;10.00;;
20236;SDS011;10277;54.386;18.596;2022-10-31T22:07:09;12.33;;;10.57;;
20236;SDS011;10277;54.386;18.596;2022-10-31T22:07:42;13.93;;;10.67;;
20236;SDS011;10277;54.386;18.596;2022-10-31T22:08:18;14.70;;;10.63;;
20236;SDS011;10277;54.386;18.596;2022-10-31T22:08:52;11.37;;;10.03;;
20236;SDS011;10277;54.386;18.596;2022-10-31T22:09:25;14.03;;;11.03;;
20236;SDS011;10277;54.386;18.596;2022-10-31T22:09:58;13.63;;;11.07;;
20236;SDS011;10277;54.386;18.596;2022-10-31T22:10:32;14.00;;;11.10;;
20236;SDS011;10277;54.386;18.596;2022-10-31T22:11:06;15.33;;;11.33;;
20236;SDS011;10277;54.386;18.596;2022-10-31T22:11:41;13.97;;;10.63;;
20236;SDS011;10277;54.386;18.596;2022-10-31T22:12:14;13.60;;;11.37;;
20236;SDS011;10277;54.386;18.596;2022-10-31T22:12:47;14.70;;;11.23;;
20236;SDS011;10277;54.386;18.596;2022-10-31T22:13:21;12.93;;;10.93;;
20236;SDS011;10277;54.386;18.596;2022-10-31T22:13:54;14.67;;;10.67;;
20236;SDS011;10277;54.386;18.596;2022-10-31T22:14:27;13.60;;;10.97;;
20236;SDS011;10277;54.386;18.596;2022-10-31T22:15:00;14.13;;;10.93;;
20236;SDS011;10277;54.386;18.596;2022-10-31T22:15:33;14.17;;;10.83;;
20236;SDS011;10277;54.386;18.596;2022-10-31T22:16:07;13.63;;;10.50;;
20236;SDS011;10277;54.386;18.596;2022-10-31T22:16:49;14.37;;;11.30;;
20236;SDS011;10277;54.386;18.596;2022-10-31T22:17:22;15.50;;;11.57;;
20236;SDS011;10277;54.386;18.596;2022-10-31T22:17:55;13.43;;;11.23;;
20236;SDS011;10277;54.386;18.596;2022-10-31T22:18:28;18.73;;;11.80;;
20236;SDS011;10277;54.386;18.596;2022-10-31T22:19:01;14.80;;;11.10;;
20236;SDS011;10277;54.386;18.596;2022-10-31T22:19:37;16.70;;;11.17;;
20236;SDS011;10277;54.386;18.596;2022-10-31T22:20:13;13.93;;;10.90;;
20236;SDS011;10277;54.386;18.596;2022-10-31T22:20:46;13.20;;;11.13;;
20236;SDS011;10277;54.386;18.596;2022-10-31T22:21:19;14.63;;;10.83;;
20236;SDS011;10277;54.386;18.596;2022-10-31T22:21:55;14.37;;;10.90;;
20236;SDS011;10277;54.386;18.596;2022-10-31T22:22:27;12.83;;;10.37;;
20236;SDS011;10277;54.386;18.596;2022-10-31T22:23:02;13.13;;;10.13;;
20236;SDS011;10277;54.386;18.596;2022-10-31T22:23:36;13.07;;;10.53;;
20236;SDS011;10277;54.386;18.596;2022-10-31T22:24:40;14.23;;;10.63;;
20236;SDS011;10277;54.386;18.596;2022-10-31T22:25:13;14.20;;;11.23;;
20236;SDS011;10277;54.386;18.596;2022-10-31T22:25:47;14.07;;;10.63;;
20236;SDS011;10277;54.386;18.596;2022-10-31T22:31:05;12.00;;;9.23;;
20236;SDS011;10277;54.386;18.596;2022-10-31T22:36:10;10.73;;;8.10;;
20236;SDS011;10277;54.386;18.596;2022-10-31T22:41:16;12.07;;;8.53;;
20236;SDS011;10277;54.386;18.596;2022-10-31T22:46:21;12.70;;;9.40;;
20236;SDS011;10277;54.386;18.596;2022-10-31T22:51:33;12.97;;;8.67;;
20236;SDS011;10277;54.386;18.596;2022-10-31T22:56:38;11.97;;;7.87;;
20236;SDS011;10277;54.386;18.596;2022-10-31T23:01:41;10.10;;;7.70;;
20236;SDS011;10277;54.386;18.596;2022-10-31T23:06:47;11.80;;;8.20;;
20236;SDS011;10277;54.386;18.596;2022-10-31T23:11:51;10.20;;;7.80;;
20236;SDS011;10277;54.386;18.596;2022-10-31T23:16:54;10.80;;;8.07;;
20236;SDS011;10277;54.386;18.596;2022-10-31T23:21:59;11.40;;;7.47;;
20236;SDS011;10277;54.386;18.596;2022-10-31T23:27:25;11.20;;;7.77;;
20236;SDS011;10277;54.386;18.596;2022-10-31T23:37:34;9.40;;;7.73;;
20236;SDS011;10277;54.386;18.596;2022-10-31T23:42:38;10.40;;;7.67;;
20236;SDS011;10277;54.386;18.596;2022-10-31T23:47:40;9.93;;;8.13;;
20236;SDS011;10277;54.386;18.596;2022-10-31T23:52:44;11.57;;;8.50;;
20236;SDS011;10277;54.386;18.596;2022-10-31T23:57:47;11.10;;;8.33;;
